Time;durP1;ratioP1;P1;durP2;ratioP2;P2;SDS_P1;SDS_P2;PMS_P1;PMS_P2;Temp;Humidity;BMP_temperature;BMP_pressure;BME280_temperature;BME280_humidity;BME280_pressure;Samples;Min_cycle;Max_cycle;Signal;HPM_P1;HPM_P2
2024/01/05 00:01:42;;;;;;;2.20;0.50;;;;;;;6.19;78.31;97057.06;6206120;28;20567;-54
2024/01/05 00:04:44;;;;;;;2.27;0.63;;;;;;;6.06;79.00;97080.25;6205880;28;20771;-55
2024/01/05 00:07:46;;;;;;;2.77;0.60;;;;;;;6.06;78.92;97056.47;6204605;28;20291;-53
2024/01/05 00:10:48;;;;;;;1.70;0.70;;;;;;;6.17;78.65;97075.00;6196609;28;20210;-55
2024/01/05 00:13:50;;;;;;;0.97;0.50;;;;;;;6.06;79.56;97073.16;6200376;28;20554;-55
2024/01/05 00:16:55;;;;;;;1.57;0.53;;;;;;;5.80;80.50;97074.31;6201482;28;20242;-55
2024/01/05 00:19:57;;;;;;;2.70;0.73;;;;;;;5.59;81.97;97072.19;6205540;28;20199;-54
2024/01/05 00:22:59;;;;;;;0.97;0.60;;;;;;;5.30;83.92;97068.50;6186564;28;20210;-53
2024/01/05 00:26:04;;;;;;;3.00;0.70;;;;;;;5.24;84.46;97070.22;6204524;28;20199;-55
2024/01/05 00:29:06;;;;;;;1.37;0.53;;;;;;;5.26;85.02;97068.16;6203915;28;20226;-55
2024/01/05 00:32:08;;;;;;;2.83;0.70;;;;;;;5.16;84.98;97070.50;6202507;28;20203;-54
2024/01/05 00:35:11;;;;;;;1.20;0.50;;;;;;;4.89;85.81;97052.34;6198588;28;20668;-55
2024/01/05 00:38:13;;;;;;;2.97;0.73;;;;;;;4.89;86.13;97060.28;6200185;28;20701;-53
2024/01/05 00:41:15;;;;;;;2.60;0.70;;;;;;;4.75;87.20;97073.84;6182488;28;20564;-53
2024/01/05 00:44:17;;;;;;;0.60;0.43;;;;;;;4.67;87.62;97077.56;6200522;28;20220;-55
2024/01/05 00:47:19;;;;;;;1.43;0.50;;;;;;;4.42;87.87;97058.34;6199288;28;20573;-53
2024/01/05 00:50:21;;;;;;;1.23;0.63;;;;;;;4.43;88.98;97067.84;6200246;28;20217;-55
2024/01/05 00:53:23;;;;;;;3.30;0.57;;;;;;;4.30;89.62;97072.25;6206130;28;20704;-55
2024/01/05 00:56:26;;;;;;;0.97;0.53;;;;;;;4.20;91.07;97079.03;6202201;28;20198;-53
2024/01/05 00:59:28;;;;;;;0.53;0.40;;;;;;;3.92;91.16;97076.81;6201133;28;20210;-55
2024/01/05 01:02:30;;;;;;;1.00;0.50;;;;;;;3.72;91.74;97080.38;6207215;28;20218;-54
2024/01/05 01:05:32;;;;;;;1.43;0.60;;;;;;;3.63;93.05;97084.28;6210987;28;20194;-55
2024/01/05 01:08:34;;;;;;;1.53;0.63;;;;;;;3.30;93.69;97092.38;6206172;28;20708;-56
2024/01/05 01:11:36;;;;;;;1.80;0.93;;;;;;;3.05;95.57;97084.38;6200232;28;20328;-55
2024/01/05 01:14:38;;;;;;;1.97;0.80;;;;;;;2.93;96.77;97080.78;6203755;28;20193;-56
2024/01/05 01:17:41;;;;;;;2.37;0.93;;;;;;;2.77;98.93;97085.50;6205885;28;20289;-54
2024/01/05 01:20:43;;;;;;;3.43;0.50;;;;;;;2.62;99.03;97086.75;6202351;28;20957;-56
2024/01/05 01:23:45;;;;;;;2.97;0.60;;;;;;;2.43;99.53;97089.19;6206825;28;20211;-55
2024/01/05 01:26:47;;;;;;;2.77;0.77;;;;;;;2.31;100.00;97082.94;6206058;28;20306;-55
2024/01/05 01:29:49;;;;;;;3.37;0.60;;;;;;;2.14;100.00;97085.19;6211440;28;20198;-56
2024/01/05 01:32:52;;;;;;;3.47;0.63;;;;;;;2.11;100.00;97082.94;6207675;28;20198;-54
2024/01/05 01:35:54;;;;;;;3.00;0.80;;;;;;;1.94;100.00;97079.13;6213164;28;20432;-53
2024/01/05 01:38:56;;;;;;;2.57;0.77;;;;;;;1.83;100.00;97082.38;6213421;28;20194;-53
2024/01/05 01:41:58;;;;;;;2.67;0.90;;;;;;;1.61;100.00;97066.75;6208181;28;20280;-55
2024/01/05 01:45:01;;;;;;;4.00;0.90;;;;;;;1.68;100.00;97079.91;6202134;28;20581;-55
2024/01/05 01:48:03;;;;;;;1.83;0.80;;;;;;;1.62;100.00;97086.75;6204353;28;20826;-55
2024/01/05 01:51:06;;;;;;;2.13;0.70;;;;;;;1.53;100.00;97091.41;6208917;28;20199;-53
2024/01/05 01:54:09;;;;;;;2.73;0.50;;;;;;;1.69;100.00;97095.47;6207616;28;20295;-54
2024/01/05 01:57:11;;;;;;;0.97;0.50;;;;;;;1.54;100.00;97090.38;6212989;28;20659;-55
2024/01/05 02:00:13;;;;;;;1.40;0.60;;;;;;;1.37;100.00;97094.38;6205117;28;20197;-54
2024/01/05 02:03:20;;;;;;;1.87;0.57;;;;;;;1.26;100.00;97101.00;6212111;28;20303;-54
2024/01/05 02:06:23;;;;;;;0.80;0.60;;;;;;;1.10;100.00;97085.63;6205452;28;20815;-54
2024/01/05 02:09:25;;;;;;;3.47;1.00;;;;;;;1.13;100.00;97079.97;6202192;28;20341;-53
2024/01/05 02:12:27;;;;;;;2.80;0.60;;;;;;;1.10;100.00;97088.25;6202757;28;20244;-56
2024/01/05 02:15:29;;;;;;;1.23;0.77;;;;;;;1.11;100.00;97087.22;6207182;28;20209;-54
2024/01/05 02:18:31;;;;;;;3.40;1.00;;;;;;;1.13;100.00;97084.41;6205867;28;20264;-53
2024/01/05 02:21:39;;;;;;;4.33;0.87;;;;;;;1.14;100.00;97071.13;6203130;28;20199;-55
2024/01/05 02:24:41;;;;;;;3.83;0.80;;;;;;;1.01;100.00;97060.56;6206834;28;20217;-53
2024/01/05 02:27:43;;;;;;;1.90;0.60;;;;;;;1.03;100.00;97058.53;6191617;28;20595;-55
2024/01/05 02:30:46;;;;;;;3.33;0.70;;;;;;;0.96;100.00;97049.84;6199210;28;20195;-55
2024/01/05 02:33:48;;;;;;;5.07;1.60;;;;;;;0.98;100.00;97056.50;6201645;28;20199;-56
2024/01/05 02:36:50;;;;;;;3.50;0.63;;;;;;;0.78;100.00;97040.69;6205957;28;20243;-54
2024/01/05 02:39:52;;;;;;;0.80;0.60;;;;;;;0.73;100.00;97050.16;6207214;28;20201;-55
2024/01/05 02:42:54;;;;;;;5.70;0.90;;;;;;;0.67;100.00;97043.06;6204280;28;20210;-53
2024/01/05 02:45:56;;;;;;;1.37;0.50;;;;;;;0.67;100.00;97038.66;6204873;28;20199;-54
2024/01/05 02:48:59;;;;;;;1.30;0.77;;;;;;;0.70;100.00;97045.31;6203239;28;20848;-53
2024/01/05 02:52:01;;;;;;;1.27;0.60;;;;;;;0.69;100.00;97046.31;6200909;28;20236;-52
2024/01/05 02:55:04;;;;;;;1.97;0.50;;;;;;;0.72;100.00;97046.72;6202643;28;20201;-55
2024/01/05 02:58:06;;;;;;;1.23;0.57;;;;;;;0.80;100.00;97042.34;6202059;28;20792;-54
2024/01/05 03:01:15;;;;;;;2.63;0.70;;;;;;;0.74;100.00;97049.19;6206285;28;20882;-55
2024/01/05 03:04:17;;;;;;;1.03;0.53;;;;;;;0.73;100.00;97045.72;6204852;28;20704;-54
2024/01/05 03:07:19;;;;;;;1.60;0.53;;;;;;;0.73;100.00;97048.34;6204376;28;20201;-54
2024/01/05 03:10:21;;;;;;;2.13;0.50;;;;;;;0.65;100.00;97047.72;6200798;28;20663;-53
2024/01/05 03:13:23;;;;;;;3.33;0.53;;;;;;;0.59;100.00;97046.69;6198667;28;20669;-55
2024/01/05 03:16:25;;;;;;;1.27;0.60;;;;;;;0.58;100.00;97039.00;6194565;28;20796;-53
2024/01/05 03:19:27;;;;;;;0.93;0.60;;;;;;;0.40;100.00;97047.38;6199307;28;20213;-55
2024/01/05 03:22:29;;;;;;;7.03;0.73;;;;;;;0.27;100.00;97035.00;6208084;28;20210;-53
2024/01/05 03:25:33;;;;;;;2.37;0.63;;;;;;;0.20;100.00;97034.16;6205704;28;20213;-54
2024/01/05 03:28:37;;;;;;;1.87;0.67;;;;;;;0.19;100.00;97043.81;6210033;28;20212;-55
2024/01/05 03:31:40;;;;;;;2.37;0.73;;;;;;;0.13;100.00;97034.09;6209833;28;20205;-55
2024/01/05 03:34:42;;;;;;;1.83;0.67;;;;;;;0.18;100.00;97036.97;6197467;28;20196;-53
2024/01/05 03:37:44;;;;;;;2.13;0.87;;;;;;;0.26;100.00;97030.78;6202150;28;20197;-55
2024/01/05 03:40:46;;;;;;;3.17;0.80;;;;;;;0.27;100.00;97032.38;6204741;28;20193;-55
2024/01/05 03:43:48;;;;;;;4.80;0.77;;;;;;;0.19;100.00;97028.09;6201822;28;20201;-55
2024/01/05 03:46:51;;;;;;;0.60;0.60;;;;;;;0.04;100.00;97013.50;6204450;28;20237;-55
2024/01/05 03:49:53;;;;;;;1.50;0.77;;;;;;;0.13;100.00;97038.53;6207547;28;20193;-56
2024/01/05 03:52:55;;;;;;;2.33;1.00;;;;;;;0.17;100.00;97040.59;6204896;28;20245;-53
2024/01/05 03:55:58;;;;;;;2.73;0.70;;;;;;;0.12;100.00;97016.78;6208801;28;20189;-55
2024/01/05 03:59:00;;;;;;;1.07;0.57;;;;;;;0.34;100.00;97032.41;6208800;28;20275;-55
2024/01/05 04:02:02;;;;;;;1.47;0.53;;;;;;;0.29;100.00;97029.56;6200301;28;20251;-54
2024/01/05 04:05:05;;;;;;;2.83;0.70;;;;;;;0.21;100.00;97033.97;6187419;28;20217;-55
2024/01/05 04:08:07;;;;;;;4.30;0.83;;;;;;;0.24;100.00;97023.09;6204624;28;20205;-54
2024/01/05 04:11:17;;;;;;;3.60;0.70;;;;;;;0.34;100.00;97027.97;6204381;28;20201;-55
2024/01/05 04:14:19;;;;;;;2.90;0.90;;;;;;;0.31;100.00;97017.91;6207073;28;20201;-53
2024/01/05 04:17:21;;;;;;;1.00;0.70;;;;;;;0.28;100.00;97014.84;6205012;28;20663;-55
2024/01/05 04:20:24;;;;;;;2.27;0.60;;;;;;;0.29;100.00;97027.75;6207789;28;20205;-54
2024/01/05 04:23:26;;;;;;;1.73;0.60;;;;;;;0.30;100.00;97025.97;6204777;28;20209;-55
2024/01/05 04:26:28;;;;;;;1.33;0.53;;;;;;;0.25;100.00;97011.63;6197419;28;20271;-53
2024/01/05 04:29:30;;;;;;;4.20;0.63;;;;;;;0.32;100.00;97009.03;6204414;28;20197;-56
2024/01/05 04:32:32;;;;;;;2.67;0.60;;;;;;;0.40;100.00;97008.91;6209675;28;20200;-54
2024/01/05 04:35:34;;;;;;;0.83;0.40;;;;;;;0.37;100.00;97011.09;6208961;28;20279;-55
2024/01/05 04:38:36;;;;;;;4.63;0.90;;;;;;;0.37;100.00;97008.47;6209467;28;20193;-55
2024/01/05 04:41:38;;;;;;;1.80;0.80;;;;;;;0.28;100.00;96986.84;6205237;28;20197;-56
2024/01/05 04:44:41;;;;;;;3.07;0.60;;;;;;;0.36;100.00;96993.75;6203466;28;20309;-55
2024/01/05 04:47:46;;;;;;;1.57;0.50;;;;;;;0.38;100.00;96987.31;6202656;28;20204;-56
2024/01/05 04:50:48;;;;;;;5.40;0.80;;;;;;;0.47;100.00;96987.94;6203908;28;20194;-55
2024/01/05 04:53:50;;;;;;;2.50;1.07;;;;;;;0.52;100.00;96986.38;6206673;28;20737;-54
2024/01/05 04:56:52;;;;;;;1.27;0.67;;;;;;;0.43;100.00;96952.66;6203106;28;20202;-55
2024/01/05 04:59:54;;;;;;;2.57;0.80;;;;;;;0.68;100.00;96977.34;6188800;28;20193;-56
2024/01/05 05:02:57;;;;;;;2.70;0.90;;;;;;;0.65;100.00;96982.19;6205504;28;20588;-54
2024/01/05 05:05:59;;;;;;;1.60;0.73;;;;;;;0.67;100.00;96978.34;6207254;28;20201;-52
2024/01/05 05:09:01;;;;;;;2.33;0.87;;;;;;;0.63;100.00;96986.81;6208621;28;20190;-55
2024/01/05 05:12:04;;;;;;;3.43;0.90;;;;;;;0.76;100.00;96984.25;6203593;28;20193;-56
2024/01/05 05:15:07;;;;;;;2.23;0.70;;;;;;;0.70;100.00;96977.16;6203365;28;20771;-55
2024/01/05 05:18:09;;;;;;;4.10;0.70;;;;;;;0.71;100.00;96984.03;6203609;28;20336;-55
2024/01/05 05:21:12;;;;;;;2.87;0.83;;;;;;;0.59;100.00;96970.69;6211005;28;20243;-54
2024/01/05 05:24:14;;;;;;;2.00;0.67;;;;;;;0.66;100.00;96984.63;6200917;28;20291;-55
2024/01/05 05:27:17;;;;;;;3.13;0.90;;;;;;;0.65;100.00;96969.91;6203064;28;20198;-54
2024/01/05 05:30:19;;;;;;;2.23;0.77;;;;;;;0.72;100.00;96980.38;6203066;28;20201;-55
2024/01/05 05:33:21;;;;;;;1.60;0.63;;;;;;;0.81;100.00;96975.78;6200721;28;20856;-55
2024/01/05 05:36:23;;;;;;;0.60;0.50;;;;;;;0.82;100.00;96982.66;6205701;28;20273;-55
2024/01/05 05:39:25;;;;;;;4.33;0.60;;;;;;;0.80;100.00;96995.97;6207263;28;20786;-55
2024/01/05 05:42:28;;;;;;;3.50;1.30;;;;;;;0.78;100.00;97004.00;6207441;28;20193;-55
2024/01/05 05:45:30;;;;;;;1.47;0.70;;;;;;;0.80;100.00;96993.34;6211525;28;20231;-55
2024/01/05 05:48:32;;;;;;;3.47;0.60;;;;;;;0.72;100.00;96981.19;6211571;28;20228;-55
2024/01/05 05:51:34;;;;;;;1.27;0.60;;;;;;;0.78;100.00;96976.97;6215050;28;20206;-56
2024/01/05 05:54:37;;;;;;;4.90;0.80;;;;;;;0.76;100.00;96979.00;6193221;28;20244;-55
2024/01/05 05:57:40;;;;;;;4.33;0.70;;;;;;;0.75;100.00;96972.94;6188924;28;20202;-55
2024/01/05 06:00:42;;;;;;;1.23;0.50;;;;;;;0.71;100.00;96963.06;6177965;28;20688;-52
2024/01/05 06:03:44;;;;;;;1.17;0.50;;;;;;;0.66;100.00;96954.97;6181601;28;20285;-55
2024/01/05 06:06:47;;;;;;;2.53;0.40;;;;;;;0.67;100.00;96977.56;6184451;28;20891;-55
2024/01/05 06:09:49;;;;;;;1.83;0.70;;;;;;;0.57;100.00;96966.63;6184776;28;20573;-55
2024/01/05 06:12:51;;;;;;;2.13;0.40;;;;;;;0.59;100.00;96975.94;6184614;28;20210;-55
2024/01/05 06:15:53;;;;;;;3.03;0.63;;;;;;;0.55;100.00;96979.94;6179059;28;20841;-55
2024/01/05 06:18:55;;;;;;;4.13;0.70;;;;;;;0.52;100.00;96981.13;6189131;28;20190;-55
2024/01/05 06:21:59;;;;;;;3.37;0.60;;;;;;;0.50;100.00;96977.09;6179108;28;20209;-54
2024/01/05 06:25:02;;;;;;;0.77;0.40;;;;;;;0.46;100.00;96975.88;6177785;28;20206;-54
2024/01/05 06:28:04;;;;;;;1.07;0.50;;;;;;;0.40;100.00;96972.22;6164236;28;20691;-54
2024/01/05 06:31:06;;;;;;;2.27;0.83;;;;;;;0.44;100.00;96964.75;6182062;28;20203;-55
2024/01/05 06:34:09;;;;;;;2.77;0.50;;;;;;;0.51;100.00;96973.47;6184383;28;20197;-55
2024/01/05 06:37:11;;;;;;;1.70;0.60;;;;;;;0.39;100.00;96980.25;6183080;28;20206;-54
2024/01/05 06:40:13;;;;;;;3.10;0.50;;;;;;;0.37;100.00;96972.59;6183523;28;20209;-56
2024/01/05 06:43:15;;;;;;;4.37;0.60;;;;;;;0.38;100.00;96965.53;6184324;28;20198;-53
2024/01/05 06:46:17;;;;;;;3.00;0.63;;;;;;;0.46;100.00;96952.28;6176837;28;20217;-55
2024/01/05 06:49:19;;;;;;;2.67;0.50;;;;;;;0.35;100.00;96958.91;6176589;28;20213;-55
2024/01/05 06:52:22;;;;;;;1.47;0.43;;;;;;;0.34;100.00;96948.59;6188657;28;20237;-54
2024/01/05 06:55:24;;;;;;;4.13;0.80;;;;;;;0.42;100.00;96958.91;6188685;28;20223;-53
2024/01/05 06:58:27;;;;;;;2.10;0.70;;;;;;;0.46;100.00;96970.63;6206443;28;20190;-54
2024/01/05 07:01:31;;;;;;;2.83;0.80;;;;;;;0.59;100.00;96968.06;6202065;28;20212;-55
2024/01/05 07:04:33;;;;;;;2.20;0.73;;;;;;;0.73;100.00;96953.16;6205796;28;20205;-55
2024/01/05 07:07:35;;;;;;;0.57;0.50;;;;;;;0.59;100.00;96946.25;6207105;28;20581;-54
2024/01/05 07:10:37;;;;;;;6.17;0.87;;;;;;;0.61;100.00;96945.06;6203218;28;20198;-53
2024/01/05 07:13:39;;;;;;;1.87;0.60;;;;;;;0.62;100.00;96935.41;6200648;28;20209;-54
2024/01/05 07:16:41;;;;;;;1.93;0.60;;;;;;;0.67;100.00;96933.81;6199978;28;20232;-55
2024/01/05 07:19:43;;;;;;;2.40;0.60;;;;;;;0.66;100.00;96931.38;6201811;28;20198;-56
2024/01/05 07:22:45;;;;;;;5.17;0.77;;;;;;;0.68;100.00;96926.75;6203380;28;20540;-57
2024/01/05 07:25:47;;;;;;;1.23;0.50;;;;;;;0.73;100.00;96908.59;6205016;28;20221;-56
2024/01/05 07:28:50;;;;;;;1.10;0.43;;;;;;;0.76;100.00;96909.03;6198357;28;20239;-55
2024/01/05 07:31:52;;;;;;;1.07;0.57;;;;;;;0.86;100.00;96906.03;6198581;28;20192;-56
2024/01/05 07:34:54;;;;;;;2.60;1.13;;;;;;;1.03;100.00;96877.59;6205832;28;20194;-56
2024/01/05 07:37:56;;;;;;;1.27;0.50;;;;;;;1.22;100.00;96881.22;6206091;28;20197;-57
2024/01/05 07:40:58;;;;;;;0.90;0.47;;;;;;;1.37;100.00;96907.25;6197650;28;20785;-57
2024/01/05 07:44:00;;;;;;;1.90;0.70;;;;;;;1.42;100.00;96908.25;6195262;28;20208;-57
2024/01/05 07:47:02;;;;;;;1.97;0.50;;;;;;;1.52;100.00;96907.84;6211870;28;20280;-57
2024/01/05 07:50:04;;;;;;;1.50;0.73;;;;;;;1.60;100.00;96891.91;6209936;28;20195;-58
2024/01/05 07:53:07;;;;;;;5.40;0.63;;;;;;;1.67;100.00;96879.56;6210126;28;20596;-57
2024/01/05 07:56:09;;;;;;;2.80;1.13;;;;;;;1.81;100.00;96875.91;6197345;28;20204;-56
2024/01/05 07:59:11;;;;;;;2.70;0.70;;;;;;;1.88;100.00;96877.72;6203508;28;20213;-57
2024/01/05 08:02:13;;;;;;;1.80;0.60;;;;;;;2.09;100.00;96880.06;6201612;28;20228;-57
2024/01/05 08:05:15;;;;;;;2.50;0.60;;;;;;;2.26;100.00;96881.19;6205328;28;20219;-54
2024/01/05 08:08:17;;;;;;;1.33;0.60;;;;;;;2.35;100.00;96873.09;6210214;28;20569;-55
2024/01/05 08:11:19;;;;;;;0.43;0.40;;;;;;;2.51;100.00;96881.31;6209056;28;20203;-57
2024/01/05 08:14:21;;;;;;;1.70;0.60;;;;;;;2.64;100.00;96867.28;6205540;28;20202;-57
2024/01/05 08:17:23;;;;;;;2.27;0.80;;;;;;;2.74;100.00;96867.63;6210664;28;20576;-57
2024/01/05 08:20:25;;;;;;;0.80;0.50;;;;;;;2.89;100.00;96869.94;6205005;28;20667;-56
2024/01/05 08:23:29;;;;;;;2.83;0.53;;;;;;;3.08;100.00;96855.84;6201317;28;20208;-57
2024/01/05 08:26:31;;;;;;;2.17;0.73;;;;;;;3.32;100.00;96842.91;6203679;28;20332;-56
2024/01/05 08:29:36;;;;;;;0.70;0.50;;;;;;;3.60;100.00;96831.91;6206473;28;20192;-57
2024/01/05 08:32:39;;;;;;;1.80;0.60;;;;;;;3.89;100.00;96859.34;6204460;28;20207;-53
2024/01/05 08:35:41;;;;;;;0.57;0.50;;;;;;;4.05;100.00;96861.41;6203312;28;20194;-57
2024/01/05 08:38:44;;;;;;;1.23;0.60;;;;;;;4.23;100.00;96857.13;6208912;28;20625;-55
2024/01/05 08:41:47;;;;;;;1.83;0.80;;;;;;;4.42;100.00;96853.44;6201088;28;20196;-56
2024/01/05 08:44:50;;;;;;;1.67;1.10;;;;;;;4.61;95.71;96870.84;6201334;28;20582;-58
2024/01/05 08:47:52;;;;;;;1.17;1.00;;;;;;;5.07;93.71;96871.22;6186651;28;20201;-58
2024/01/05 08:50:55;;;;;;;1.20;0.90;;;;;;;5.31;92.34;96859.66;6204106;28;20239;-57
2024/01/05 08:53:59;;;;;;;0.83;0.80;;;;;;;5.66;81.54;96867.63;6205374;28;20648;-57
2024/01/05 08:57:01;;;;;;;1.87;0.87;;;;;;;5.99;78.21;96876.81;6201301;28;20202;-57
2024/01/05 09:00:03;;;;;;;1.00;0.83;;;;;;;6.18;71.02;96890.69;6201585;28;20335;-57
2024/01/05 09:03:06;;;;;;;3.07;1.20;;;;;;;6.35;68.83;96873.03;6202545;28;20202;-58
2024/01/05 09:06:08;;;;;;;1.83;1.00;;;;;;;6.54;70.29;96878.16;6197002;28;20215;-58
2024/01/05 09:09:10;;;;;;;1.30;0.90;;;;;;;6.51;72.95;96883.94;6202604;28;20923;-58
2024/01/05 09:12:13;;;;;;;2.50;0.93;;;;;;;6.54;69.62;96878.97;6202857;28;20203;-57
2024/01/05 09:15:17;;;;;;;1.47;1.27;;;;;;;6.52;67.19;96867.03;6207316;28;20676;-58
2024/01/05 09:18:20;;;;;;;3.50;1.63;;;;;;;6.61;68.75;96884.13;6204276;28;20208;-56
2024/01/05 09:21:22;;;;;;;2.60;1.40;;;;;;;6.57;70.95;96867.91;6206525;28;20208;-57
2024/01/05 09:24:24;;;;;;;1.87;1.30;;;;;;;6.59;70.96;96879.06;6206235;28;20240;-58
2024/01/05 09:27:27;;;;;;;1.60;1.20;;;;;;;6.61;67.83;96860.31;6197869;28;20259;-58
2024/01/05 09:30:29;;;;;;;3.07;1.30;;;;;;;6.73;69.83;96866.34;6202100;28;20721;-58
2024/01/05 09:33:31;;;;;;;1.77;1.13;;;;;;;6.82;66.39;96869.44;6206935;28;20250;-59
2024/01/05 09:36:39;;;;;;;1.70;1.20;;;;;;;6.90;66.05;96859.25;6209870;28;20538;-58
2024/01/05 09:39:42;;;;;;;2.70;1.30;;;;;;;7.11;61.94;96849.00;6208013;28;20896;-59
2024/01/05 09:42:51;;;;;;;2.23;1.33;;;;;;;7.37;60.18;96840.41;6205101;28;20229;-56
2024/01/05 09:45:55;;;;;;;2.30;1.37;;;;;;;7.23;61.89;96839.94;6200635;28;20848;-57
2024/01/05 09:48:58;;;;;;;4.00;1.80;;;;;;;7.18;64.49;96839.84;6205724;28;20207;-56
2024/01/05 09:52:01;;;;;;;1.63;1.07;;;;;;;7.31;62.36;96827.34;6200035;28;20237;-58
2024/01/05 09:55:04;;;;;;;2.10;1.40;;;;;;;7.29;62.40;96824.94;6204189;28;20204;-59
2024/01/05 09:58:06;;;;;;;2.17;1.40;;;;;;;7.30;62.36;96821.25;6208607;28;20203;-59
2024/01/05 10:01:14;;;;;;;2.23;1.70;;;;;;;7.28;62.12;96810.06;6206663;28;20197;-58
2024/01/05 10:04:19;;;;;;;2.13;1.50;;;;;;;7.34;61.78;96803.00;6209253;28;20204;-59
2024/01/05 10:07:21;;;;;;;3.07;1.53;;;;;;;7.38;61.13;96809.41;6210907;28;20284;-58
2024/01/05 10:10:48;;;;;;;1.83;1.40;;;;;;;7.45;61.16;96797.63;6215246;28;20787;-58
2024/01/05 10:13:54;;;;;;;3.33;1.77;;;;;;;7.44;60.65;96774.81;6208304;28;20193;-58
2024/01/05 10:17:09;;;;;;;2.07;1.70;;;;;;;7.61;60.14;96776.63;6197966;28;20202;-59
2024/01/05 10:20:16;;;;;;;2.90;1.70;;;;;;;7.67;60.97;96786.25;6202836;28;20670;-59
2024/01/05 10:23:19;;;;;;;2.33;1.60;;;;;;;7.78;60.07;96773.91;6207402;28;20210;-58
2024/01/05 10:26:21;;;;;;;2.30;1.90;;;;;;;7.84;60.25;96762.34;6209624;28;20213;-58
2024/01/05 10:29:24;;;;;;;4.27;2.30;;;;;;;8.07;58.87;96764.72;6210641;28;20239;-56
2024/01/05 10:32:26;;;;;;;2.73;2.00;;;;;;;8.14;58.55;96762.72;6205124;28;20199;-58
2024/01/05 10:35:30;;;;;;;2.83;2.07;;;;;;;8.15;58.95;96748.38;6210214;28;20200;-56
2024/01/05 10:39:25;;;;;;;3.77;1.93;;;;;;;8.25;59.47;96755.66;6213516;28;20197;-59
2024/01/05 10:43:12;;;;;;;3.93;2.00;;;;;;;8.48;58.67;96742.13;6207626;28;20201;-59
2024/01/05 10:46:31;;;;;;;2.97;1.93;;;;;;;8.68;57.00;96740.72;6209487;28;20205;-58
2024/01/05 10:49:49;;;;;;;4.47;2.37;;;;;;;8.52;56.69;96727.31;6212000;28;20198;-58
2024/01/05 10:53:09;;;;;;;4.17;2.43;;;;;;;8.39;55.58;96717.09;6237020;22;20241;-93
2024/01/05 10:56:24;;;;;;;2.93;2.00;;;;;;;8.28;56.42;96710.06;6165677;28;20243;-58
2024/01/05 10:59:27;;;;;;;3.10;2.50;;;;;;;8.26;57.16;96704.97;6172351;28;20198;-59
2024/01/05 11:02:40;;;;;;;2.63;2.10;;;;;;;8.30;57.22;96702.63;6174576;28;20667;-58
2024/01/05 11:05:46;;;;;;;3.87;2.60;;;;;;;8.31;56.41;96690.97;6181028;28;20206;-58
2024/01/05 11:09:26;;;;;;;3.50;2.67;;;;;;;8.38;58.05;96698.78;6162189;28;20198;-58
2024/01/05 11:12:40;;;;;;;4.63;2.40;;;;;;;8.45;57.73;96689.53;6181769;28;20201;-58
2024/01/05 11:16:07;;;;;;;5.03;3.10;;;;;;;8.47;58.52;96681.31;6181280;28;20193;-58
2024/01/05 11:19:12;;;;;;;7.13;4.03;;;;;;;8.55;59.18;96680.06;6178600;28;20578;-56
2024/01/05 11:22:24;;;;;;;7.10;4.67;;;;;;;8.46;60.03;96663.78;6180191;28;20194;-57
2024/01/05 11:25:27;;;;;;;6.57;4.60;;;;;;;8.23;61.57;96673.66;6174934;28;20700;-58
2024/01/05 11:28:38;;;;;;;5.33;4.10;;;;;;;8.25;62.22;96660.13;6178477;28;20333;-58
2024/01/05 11:31:46;;;;;;;6.57;4.77;;;;;;;8.34;63.05;96655.97;6183837;28;20684;-58
2024/01/05 11:34:49;;;;;;;7.93;4.97;;;;;;;8.09;63.74;96635.31;6180319;28;20202;-57
2024/01/05 11:37:52;;;;;;;9.77;5.50;;;;;;;8.14;65.58;96637.22;6178008;28;20280;-59
2024/01/05 11:40:54;;;;;;;11.53;5.50;;;;;;;8.07;65.96;96608.25;6179458;28;20655;-57
2024/01/05 11:43:57;;;;;;;8.47;5.80;;;;;;;8.05;66.16;96618.31;6177659;28;20935;-58
2024/01/05 11:47:01;;;;;;;9.67;5.80;;;;;;;8.39;65.23;96615.44;6180049;28;20240;-58
2024/01/05 11:50:22;;;;;;;9.90;5.30;;;;;;;8.03;66.49;96615.13;6176362;28;20194;-58
2024/01/05 11:53:27;;;;;;;7.00;5.00;;;;;;;7.95;67.22;96626.16;6175504;28;20194;-57
2024/01/05 11:56:30;;;;;;;7.27;5.23;;;;;;;8.11;66.50;96625.25;6199162;28;20221;-57
2024/01/05 11:59:32;;;;;;;9.10;5.57;;;;;;;7.94;67.92;96628.03;6197116;28;20201;-58
2024/01/05 12:02:34;;;;;;;9.37;5.33;;;;;;;7.84;68.32;96617.31;6197641;28;20570;-56
2024/01/05 12:05:41;;;;;;;7.20;4.80;;;;;;;7.82;68.29;96606.16;6206137;28;20223;-58
2024/01/05 12:08:44;;;;;;;9.97;5.57;;;;;;;8.09;66.77;96610.66;6210568;28;20204;-56
2024/01/05 12:11:47;;;;;;;10.57;4.90;;;;;;;7.80;68.21;96612.78;6198166;28;20210;-58
2024/01/05 12:14:49;;;;;;;7.30;4.67;;;;;;;7.64;69.16;96606.50;6199504;28;20610;-57
2024/01/05 12:18:08;;;;;;;8.60;4.70;;;;;;;7.56;70.29;96622.84;6204557;28;20577;-58
2024/01/05 12:21:24;;;;;;;9.67;5.37;;;;;;;7.61;70.13;96604.34;6205266;28;20802;-58
2024/01/05 12:24:26;;;;;;;10.47;5.87;;;;;;;7.59;70.08;96580.75;6207631;28;20189;-57
2024/01/05 12:27:38;;;;;;;9.73;5.27;;;;;;;7.54;70.58;96588.66;6191570;28;20226;-58
2024/01/05 12:30:41;;;;;;;10.77;5.43;;;;;;;7.62;71.37;96590.03;6204773;28;20189;-56
2024/01/05 12:33:45;;;;;;;7.00;5.03;;;;;;;7.73;71.09;96578.47;6199513;28;20291;-58
2024/01/05 12:36:48;;;;;;;10.00;5.70;;;;;;;7.78;69.48;96561.81;6203459;28;20216;-58
2024/01/05 12:39:50;;;;;;;11.33;6.07;;;;;;;8.05;68.58;96567.91;6202644;28;20613;-57
2024/01/05 12:42:53;;;;;;;8.87;5.70;;;;;;;7.89;68.63;96552.94;6205322;28;20200;-58
2024/01/05 12:45:55;;;;;;;9.20;5.90;;;;;;;8.06;69.45;96558.09;6186985;28;20273;-57
2024/01/05 12:48:57;;;;;;;6.67;5.00;;;;;;;7.92;69.41;96555.06;6212373;28;20200;-57
2024/01/05 12:51:59;;;;;;;7.47;5.03;;;;;;;7.94;70.09;96553.78;6214136;28;20208;-58
2024/01/05 12:55:03;;;;;;;9.50;5.50;;;;;;;7.81;69.47;96556.84;6205103;28;20237;-58
2024/01/05 12:58:05;;;;;;;9.00;5.90;;;;;;;7.67;71.25;96545.03;6200267;28;20929;-57
2024/01/05 13:01:16;;;;;;;8.00;5.47;;;;;;;7.55;71.50;96552.34;6209356;28;20203;-56
2024/01/05 13:04:29;;;;;;;8.97;5.33;;;;;;;7.42;72.94;96545.59;6205661;28;20454;-58
2024/01/05 13:07:39;;;;;;;6.90;4.63;;;;;;;7.32;73.60;96545.47;6210790;28;20205;-59
2024/01/05 13:10:41;;;;;;;7.70;5.93;;;;;;;7.24;73.71;96542.22;6209885;28;20208;-60
2024/01/05 13:13:43;;;;;;;6.70;4.67;;;;;;;7.21;74.62;96540.06;6210527;28;20647;-59
2024/01/05 13:16:46;;;;;;;7.20;5.27;;;;;;;7.12;75.96;96524.88;6207220;28;20340;-60
2024/01/05 13:19:48;;;;;;;6.00;4.73;;;;;;;7.19;75.97;96536.06;6204607;28;20197;-57
2024/01/05 13:22:52;;;;;;;7.50;4.83;;;;;;;7.20;76.63;96533.19;6201047;28;20188;-59
2024/01/05 13:25:55;;;;;;;8.43;5.57;;;;;;;7.00;76.87;96509.13;6204823;28;20213;-60
2024/01/05 13:28:57;;;;;;;6.70;5.00;;;;;;;7.13;76.80;96535.19;6205080;28;20193;-60
2024/01/05 13:31:59;;;;;;;8.33;5.43;;;;;;;6.95;76.12;96524.94;6207940;28;20688;-58
2024/01/05 13:35:01;;;;;;;6.17;4.63;;;;;;;6.93;76.83;96540.25;6206244;28;20197;-60
2024/01/05 13:38:04;;;;;;;7.27;4.67;;;;;;;6.81;76.84;96534.31;6202513;28;20672;-59
2024/01/05 13:41:07;;;;;;;6.83;4.13;;;;;;;6.66;74.69;96530.41;6202434;28;20196;-59
2024/01/05 13:44:09;;;;;;;7.40;4.20;;;;;;;6.60;74.37;96536.69;6204314;28;20207;-59
2024/01/05 13:47:11;;;;;;;9.23;4.60;;;;;;;6.47;73.32;96524.59;6201339;28;20747;-59
2024/01/05 13:50:13;;;;;;;5.60;3.87;;;;;;;6.43;73.82;96541.19;6185989;28;20711;-59
2024/01/05 13:53:15;;;;;;;8.37;4.00;;;;;;;6.36;74.21;96537.94;6204132;28;20197;-59
2024/01/05 13:56:18;;;;;;;5.77;3.77;;;;;;;6.15;75.13;96524.38;6204144;28;20593;-60
2024/01/05 13:59:20;;;;;;;6.60;4.13;;;;;;;6.17;76.31;96542.69;6199900;28;20209;-57
2024/01/05 14:02:22;;;;;;;6.00;4.13;;;;;;;6.09;76.37;96537.78;6207393;28;20230;-58
2024/01/05 14:05:24;;;;;;;10.23;5.80;;;;;;;5.93;78.02;96519.03;6205492;28;20216;-57
2024/01/05 14:08:26;;;;;;;9.90;6.70;;;;;;;6.06;79.90;96539.09;6202491;28;20253;-59
2024/01/05 14:11:29;;;;;;;10.47;6.37;;;;;;;6.00;80.93;96550.59;6200862;28;20206;-58
2024/01/05 14:14:31;;;;;;;12.50;6.47;;;;;;;5.97;81.30;96558.22;6205236;28;20298;-59
2024/01/05 14:17:33;;;;;;;9.13;6.37;;;;;;;5.94;81.71;96555.00;6198168;28;20194;-60
2024/01/05 14:20:35;;;;;;;8.73;5.97;;;;;;;5.86;82.60;96559.84;6213674;28;20210;-58
2024/01/05 14:23:38;;;;;;;9.70;6.10;;;;;;;5.73;83.47;96555.69;6209093;28;20630;-58
2024/01/05 14:26:44;;;;;;;8.53;6.00;;;;;;;5.54;85.00;96554.28;6212831;28;20703;-59
2024/01/05 14:29:47;;;;;;;7.13;5.07;;;;;;;5.40;85.90;96551.94;6206654;28;20195;-59